createdAt,value
2023-05-13T00:00:59.142Z,41.76
2023-05-13T00:03:32.756Z,42.24
2023-05-13T00:06:05.530Z,41.20
2023-05-13T00:08:37.654Z,41.46
2023-05-13T00:11:10.144Z,40.37
2023-05-13T00:13:42.337Z,40.50
2023-05-13T00:16:14.447Z,40.12
2023-05-13T00:18:46.877Z,39.75
2023-05-13T00:21:19.126Z,39.67
2023-05-13T00:23:51.477Z,39.52
2023-05-13T00:26:24.314Z,39.69
2023-05-13T00:28:56.754Z,39.45
2023-05-13T00:31:29.039Z,39.34
2023-05-13T00:34:01.209Z,39.60
2023-05-13T00:36:34.283Z,39.19
2023-05-13T00:39:06.388Z,39.48
2023-05-13T00:41:38.709Z,39.86
2023-05-13T00:44:12.708Z,39.95
2023-05-13T00:46:45.181Z,39.95
2023-05-13T00:49:17.801Z,40.13
2023-05-13T00:51:51.381Z,39.69
2023-05-13T00:54:23.722Z,39.51
2023-05-13T00:56:57.226Z,40.05
2023-05-13T00:59:31.787Z,39.60
2023-05-13T01:02:15.922Z,40.21
2023-05-13T01:05:06.239Z,40.32
2023-05-13T01:07:56.086Z,40.39
2023-05-13T01:10:47.914Z,40.96
2023-05-13T01:13:23.424Z,40.85
2023-05-13T01:16:17.973Z,40.77
2023-05-13T01:18:53.177Z,40.86
2023-05-13T01:21:29.695Z,40.69
2023-05-13T01:24:03.859Z,41.19
2023-05-13T01:26:35.709Z,40.81
2023-05-13T01:29:07.937Z,41.29
2023-05-13T01:31:42.641Z,40.97
2023-05-13T01:34:16.487Z,40.92
2023-05-13T01:36:49.774Z,40.81
2023-05-13T01:39:24.222Z,40.60
2023-05-13T01:41:57.846Z,40.44
2023-05-13T01:44:30.176Z,40.76
2023-05-13T01:47:03.575Z,41.31
2023-05-13T01:49:35.615Z,41.49
2023-05-13T01:52:07.894Z,41.72
2023-05-13T01:54:39.947Z,41.70
2023-05-13T01:57:13.675Z,42.20
2023-05-13T01:59:45.960Z,42.21
2023-05-13T02:02:18.998Z,42.11
2023-05-13T02:04:51.308Z,42.43
2023-05-13T02:07:23.473Z,42.62
2023-05-13T02:09:57.218Z,43.05
2023-05-13T02:12:29.571Z,42.92
2023-05-13T02:15:02.198Z,43.24
2023-05-13T02:17:36.779Z,43.10
2023-05-13T02:20:10.216Z,42.75
2023-05-13T02:22:42.513Z,43.03
2023-05-13T02:25:14.702Z,42.87
2023-05-13T02:27:46.946Z,42.96
2023-05-13T02:30:19.640Z,42.95
2023-05-13T02:32:52.088Z,42.29
2023-05-13T02:35:25.870Z,42.09
2023-05-13T02:37:58.703Z,42.56
2023-05-13T02:40:30.994Z,42.41
2023-05-13T02:43:03.786Z,42.05
2023-05-13T02:45:37.703Z,41.75
2023-05-13T02:48:11.243Z,42.08
2023-05-13T02:50:43.657Z,41.93
2023-05-13T02:53:16.629Z,42.29
2023-05-13T02:55:50.494Z,42.23
2023-05-13T02:58:22.228Z,41.01
2023-05-13T03:00:54.621Z,41.55
2023-05-13T03:03:29.864Z,41.37
2023-05-13T03:06:02.394Z,41.58
2023-05-13T03:08:34.662Z,41.49
2023-05-13T03:11:07.091Z,41.20
2023-05-13T03:13:39.114Z,41.13
2023-05-13T03:16:11.439Z,41.55
2023-05-13T03:18:43.802Z,41.50
2023-05-13T03:21:16.033Z,41.36
2023-05-13T03:23:48.872Z,40.52
2023-05-13T03:26:22.420Z,41.74
2023-05-13T03:28:54.558Z,41.71
2023-05-13T03:31:27.416Z,41.75
2023-05-13T03:34:00.524Z,41.28
2023-05-13T03:36:34.132Z,40.43
2023-05-13T03:39:06.351Z,40.37
2023-05-13T03:41:38.627Z,40.62
2023-05-13T03:44:10.763Z,40.85
2023-05-13T03:46:43.714Z,40.42
2023-05-13T03:49:15.940Z,40.19
2023-05-13T03:51:48.320Z,40.03
2023-05-13T03:54:20.672Z,39.73
2023-05-13T03:56:53.322Z,40.01
2023-05-13T03:59:25.649Z,40.22
2023-05-13T04:01:57.772Z,39.91
2023-05-13T04:04:29.905Z,39.82
2023-05-13T04:07:02.610Z,39.82
2023-05-13T04:09:35.944Z,39.52
2023-05-13T04:12:08.409Z,39.46
2023-05-13T04:14:40.604Z,39.17
2023-05-13T04:17:13.584Z,38.61
2023-05-13T04:19:46.194Z,38.61
2023-05-13T04:22:18.461Z,38.47
2023-05-13T04:24:55.480Z,38.16
2023-05-13T04:27:27.737Z,38.16
2023-05-13T04:30:01.680Z,37.32
2023-05-13T04:32:35.819Z,37.34
2023-05-13T04:35:11.560Z,37.27
2023-05-13T04:37:45.418Z,36.62
2023-05-13T04:40:19.413Z,36.53
2023-05-13T04:42:53.975Z,36.38
2023-05-13T04:45:27.935Z,36.15
2023-05-13T04:48:00.469Z,36.19
2023-05-13T04:50:33.174Z,36.02
2023-05-13T04:53:06.618Z,35.69
2023-05-13T04:55:38.676Z,35.50
2023-05-13T04:58:10.750Z,35.47
2023-05-13T05:00:43.315Z,35.58
2023-05-13T05:03:16.135Z,35.13
2023-05-13T05:05:48.963Z,34.79
2023-05-13T05:08:21.685Z,34.41
2023-05-13T05:10:55.673Z,34.79
2023-05-13T05:13:27.892Z,34.32
2023-05-13T05:16:00.249Z,34.12
2023-05-13T05:18:36.495Z,34.47
2023-05-13T05:21:09.907Z,34.08
2023-05-13T05:23:42.672Z,33.58
2023-05-13T05:26:15.917Z,32.47
2023-05-13T05:28:48.370Z,32.83
2023-05-13T05:31:21.734Z,32.46
2023-05-13T05:33:55.286Z,32.70
2023-05-13T05:36:27.696Z,32.08
2023-05-13T05:39:00.158Z,31.99
2023-05-13T05:41:34.459Z,31.31
2023-05-13T05:44:06.860Z,30.85
2023-05-13T05:46:39.268Z,31.55
2023-05-13T05:49:11.919Z,31.81
2023-05-13T05:51:44.296Z,31.84
2023-05-13T05:54:16.977Z,31.37
2023-05-13T05:56:49.509Z,30.83
2023-05-13T05:59:22.349Z,30.20
2023-05-13T06:01:54.706Z,30.19
2023-05-13T06:04:26.882Z,29.67
2023-05-13T06:06:59.476Z,29.52
2023-05-13T06:09:32.369Z,29.78
2023-05-13T06:12:05.275Z,30.12
2023-05-13T06:14:37.479Z,28.96
2023-05-13T06:17:09.755Z,29.00
2023-05-13T06:19:44.125Z,29.16
2023-05-13T06:22:16.451Z,28.34
2023-05-13T06:24:49.082Z,28.54
2023-05-13T06:27:21.800Z,27.95
2023-05-13T06:29:54.584Z,28.06
2023-05-13T06:32:27.523Z,28.16
2023-05-13T06:35:00.015Z,28.73
2023-05-13T06:37:34.172Z,28.66
2023-05-13T06:40:08.978Z,28.98
2023-05-13T06:42:43.506Z,28.65
2023-05-13T06:45:21.649Z,28.76
2023-05-13T06:47:54.891Z,28.72
2023-05-13T06:50:27.638Z,28.58
2023-05-13T06:53:00.692Z,28.58
2023-05-13T06:55:35.373Z,28.62
2023-05-13T06:58:08.625Z,28.24
2023-05-13T07:00:42.425Z,27.96
2023-05-13T07:03:17.853Z,28.00
2023-05-13T07:05:51.150Z,28.03
2023-05-13T07:08:23.716Z,27.96
2023-05-13T07:10:56.573Z,28.10
2023-05-13T07:13:30.382Z,28.60
2023-05-13T07:16:03.366Z,27.85
2023-05-13T07:18:35.703Z,28.14
2023-05-13T07:21:08.387Z,27.75
2023-05-13T07:23:41.995Z,27.00
2023-05-13T07:26:14.952Z,27.70
2023-05-13T07:28:47.588Z,27.28
2023-05-13T07:31:20.113Z,27.58
2023-05-13T07:33:52.463Z,27.90
2023-05-13T07:36:25.685Z,27.48
2023-05-13T07:38:58.079Z,26.91
2023-05-13T07:41:30.487Z,26.86
2023-05-13T07:44:03.174Z,27.02
2023-05-13T07:46:35.867Z,26.20
2023-05-13T07:49:08.927Z,26.30
2023-05-13T07:51:41.751Z,26.32
2023-05-13T07:54:14.665Z,26.47
2023-05-13T07:56:48.069Z,26.47
2023-05-13T07:59:20.483Z,25.66
2023-05-13T08:01:53.119Z,24.66
2023-05-13T08:04:27.222Z,24.92
2023-05-13T08:06:59.801Z,25.28
2023-05-13T08:09:32.245Z,25.23
2023-05-13T08:12:04.856Z,24.84
2023-05-13T08:14:38.075Z,25.63
2023-05-13T08:17:10.455Z,24.99
2023-05-13T08:19:43.302Z,25.72
2023-05-13T08:22:15.396Z,25.01
2023-05-13T08:24:47.878Z,24.14
2023-05-13T08:27:20.066Z,24.87
2023-05-13T08:29:52.633Z,24.45
2023-05-13T08:32:25.588Z,24.40
2023-05-13T08:34:57.945Z,24.24
2023-05-13T08:37:30.399Z,23.79
2023-05-13T08:40:04.678Z,24.25
2023-05-13T08:42:40.132Z,24.33
2023-05-13T08:45:14.597Z,23.93
2023-05-13T08:47:56.885Z,23.85
2023-05-13T08:50:30.996Z,24.03
2023-05-13T08:53:03.205Z,23.85
2023-05-13T08:55:35.758Z,24.25
2023-05-13T08:58:08.607Z,24.82
2023-05-13T09:00:41.655Z,24.82
2023-05-13T09:03:15.376Z,24.26
2023-05-13T09:05:49.130Z,24.59
2023-05-13T09:08:21.350Z,24.48
2023-05-13T09:10:54.657Z,24.95
2023-05-13T09:13:26.957Z,25.33
2023-05-13T09:15:59.350Z,25.30
2023-05-13T09:18:35.151Z,24.82
2023-05-13T09:21:28.187Z,24.80
2023-05-13T09:24:16.372Z,24.62
2023-05-13T09:26:51.472Z,23.11
2023-05-13T09:29:32.248Z,23.07
2023-05-13T09:32:08.605Z,23.44
2023-05-13T09:34:41.631Z,23.30
2023-05-13T09:37:17.331Z,23.28
2023-05-13T09:39:53.010Z,23.18
2023-05-13T09:42:25.600Z,22.84
2023-05-13T09:44:58.263Z,22.79
2023-05-13T09:47:32.514Z,23.34
2023-05-13T09:50:06.102Z,23.06
2023-05-13T09:52:39.884Z,22.47
2023-05-13T09:55:13.057Z,22.42
2023-05-13T09:57:47.693Z,22.43
2023-05-13T10:00:31.531Z,23.11
2023-05-13T10:02:53.378Z,23.09
2023-05-13T10:05:26.205Z,23.50
2023-05-13T10:07:59.588Z,23.57
2023-05-13T10:10:33.574Z,23.88
2023-05-13T10:13:08.967Z,23.06
2023-05-13T10:15:50.590Z,23.09
2023-05-13T10:18:24.699Z,23.62
2023-05-13T10:20:58.467Z,23.11
2023-05-13T10:23:32.802Z,23.26
2023-05-13T10:26:07.661Z,23.34
2023-05-13T10:28:41.045Z,23.61
2023-05-13T10:31:13.305Z,23.36
2023-05-13T10:33:46.691Z,23.76
2023-05-13T10:36:44.187Z,25.19
2023-05-13T10:39:25.832Z,24.14
2023-05-13T10:42:19.029Z,24.04
2023-05-13T10:44:55.948Z,23.30
2023-05-13T10:47:30.489Z,23.04
2023-05-13T10:50:05.735Z,23.16
2023-05-13T10:52:45.891Z,23.02
2023-05-13T10:55:23.102Z,22.50
2023-05-13T10:58:15.453Z,22.71
2023-05-13T11:00:48.189Z,22.93
2023-05-13T11:03:23.531Z,22.86
2023-05-13T11:06:04.807Z,23.22
2023-05-13T11:08:48.176Z,23.04
2023-05-13T11:11:29.351Z,23.35
2023-05-13T11:14:09.358Z,23.41
2023-05-13T11:16:56.108Z,22.22
2023-05-13T11:19:30.217Z,21.77
2023-05-13T11:22:13.691Z,20.27
2023-05-13T11:25:07.567Z,19.22
2023-05-13T11:27:42.356Z,18.16
2023-05-13T11:30:28.255Z,16.62
2023-05-13T11:33:03.096Z,17.21
2023-05-13T11:35:35.464Z,17.68
2023-05-13T11:38:08.021Z,18.30
2023-05-13T11:40:41.270Z,18.71
2023-05-13T11:43:15.578Z,18.54
2023-05-13T11:45:49.157Z,18.39
2023-05-13T11:48:24.506Z,18.37
2023-05-13T11:50:57.486Z,16.79
2023-05-13T11:53:29.736Z,16.83
2023-05-13T11:56:12.701Z,14.01
2023-05-13T11:58:45.381Z,12.87
2023-05-13T12:01:17.854Z,11.81
2023-05-13T12:03:50.507Z,10.98
2023-05-13T12:06:23.012Z,10.03
2023-05-13T12:08:55.308Z,9.73
2023-05-13T12:11:27.764Z,9.30
2023-05-13T12:14:00.192Z,9.12
2023-05-13T12:16:32.489Z,8.55
2023-05-13T12:19:07.458Z,7.98
2023-05-13T12:21:40.820Z,7.88
2023-05-13T12:24:22.199Z,7.62
2023-05-13T12:26:54.995Z,7.37
2023-05-13T12:29:27.281Z,7.07
2023-05-13T12:32:07.605Z,7.01
2023-05-13T12:34:40.168Z,7.77
2023-05-13T12:37:14.697Z,8.12
2023-05-13T12:39:47.836Z,8.10
2023-05-13T12:42:20.595Z,7.76
2023-05-13T12:44:53.361Z,7.89
2023-05-13T12:47:25.608Z,7.83
2023-05-13T12:49:59.849Z,7.45
2023-05-13T12:52:33.771Z,7.20
2023-05-13T12:55:07.086Z,6.96
2023-05-13T12:57:39.330Z,6.57
2023-05-13T13:00:12.691Z,6.36
2023-05-13T13:02:46.181Z,6.12
2023-05-13T13:05:19.761Z,6.15
2023-05-13T13:07:52.795Z,6.80
2023-05-13T13:10:27.039Z,6.82
2023-05-13T13:12:59.265Z,6.95
2023-05-13T13:15:31.822Z,7.70
2023-05-13T13:18:04.694Z,7.82
2023-05-13T13:20:37.939Z,7.69
2023-05-13T13:23:11.156Z,7.34
2023-05-13T13:25:43.661Z,7.15
2023-05-13T13:28:16.325Z,6.70
2023-05-13T13:30:48.609Z,6.34
2023-05-13T13:33:22.572Z,6.40
2023-05-13T13:35:54.779Z,6.33
2023-05-13T13:38:27.209Z,6.46
2023-05-13T13:40:59.314Z,6.60
2023-05-13T13:43:31.563Z,6.72
2023-05-13T13:46:03.686Z,6.78
2023-05-13T13:48:35.901Z,6.47
2023-05-13T13:51:08.250Z,6.05
2023-05-13T13:53:40.658Z,6.00
2023-05-13T13:56:12.850Z,6.10
2023-05-13T13:58:45.135Z,6.41
2023-05-13T14:01:17.607Z,6.57
2023-05-13T14:03:51.935Z,6.90
2023-05-13T14:06:24.079Z,7.24
2023-05-13T14:08:56.081Z,7.27
2023-05-13T14:11:28.485Z,7.22
2023-05-13T14:14:01.959Z,7.67
2023-05-13T14:16:34.310Z,7.62
2023-05-13T14:19:06.570Z,7.36
2023-05-13T14:21:39.021Z,7.31
2023-05-13T14:24:12.139Z,7.01
2023-05-13T14:26:44.243Z,6.99
2023-05-13T14:29:16.597Z,7.43
2023-05-13T14:31:49.188Z,7.48
2023-05-13T14:34:23.023Z,7.81
2023-05-13T14:36:54.502Z,7.51
2023-05-13T14:39:26.371Z,7.24
2023-05-13T14:41:58.979Z,7.25
2023-05-13T14:44:31.459Z,7.73
2023-05-13T14:47:03.589Z,7.87
2023-05-13T14:49:36.058Z,8.55
2023-05-13T14:52:08.595Z,9.87
2023-05-13T14:54:41.612Z,10.96
2023-05-13T14:57:14.634Z,11.71
2023-05-13T14:59:46.837Z,12.68
2023-05-13T15:02:19.353Z,12.60
2023-05-13T15:04:51.676Z,13.44
2023-05-13T15:07:23.925Z,14.39
2023-05-13T15:09:56.815Z,15.36
2023-05-13T15:12:29.126Z,16.08
2023-05-13T15:15:01.391Z,15.80
2023-05-13T15:17:35.067Z,16.34
2023-05-13T15:20:08.275Z,16.81
2023-05-13T15:22:40.301Z,17.49
2023-05-13T15:25:12.824Z,18.19
2023-05-13T15:27:45.169Z,18.86
2023-05-13T15:30:17.632Z,19.38
2023-05-13T15:32:50.101Z,19.79
2023-05-13T15:35:22.351Z,20.21
2023-05-13T15:37:54.481Z,20.29
2023-05-13T15:40:26.965Z,20.37
2023-05-13T15:42:59.199Z,21.20
2023-05-13T15:45:31.490Z,21.00
2023-05-13T15:48:04.418Z,21.18
2023-05-13T15:50:36.616Z,21.72
2023-05-13T15:53:08.686Z,21.95
2023-05-13T15:55:40.857Z,21.66
2023-05-13T15:58:13.224Z,21.87
2023-05-13T16:00:45.652Z,21.88
2023-05-13T16:03:18.259Z,22.10
2023-05-13T16:05:51.214Z,22.42
2023-05-13T16:08:23.995Z,22.55
2023-05-13T16:10:56.741Z,22.70
2023-05-13T16:13:28.797Z,22.75
2023-05-13T16:16:00.894Z,22.96
2023-05-13T16:18:33.223Z,22.90
2023-05-13T16:21:05.387Z,22.84
2023-05-13T16:23:37.436Z,22.91
2023-05-13T16:26:09.801Z,23.28
2023-05-13T16:28:42.336Z,23.57
2023-05-13T16:31:15.037Z,24.03
2023-05-13T16:33:47.694Z,24.37
2023-05-13T16:36:20.155Z,24.97
2023-05-13T16:38:52.645Z,25.25
2023-05-13T16:41:24.799Z,25.47
2023-05-13T16:43:56.902Z,25.62
2023-05-13T16:46:29.241Z,26.00
2023-05-13T16:49:19.426Z,26.37
2023-05-13T16:51:51.655Z,26.66
2023-05-13T16:54:23.727Z,27.12
2023-05-13T16:56:55.856Z,27.33
2023-05-13T16:59:28.954Z,27.79
2023-05-13T17:02:01.712Z,27.95
2023-05-13T17:04:33.872Z,28.07
2023-05-13T17:07:06.031Z,28.32
2023-05-13T17:09:38.420Z,28.54
2023-05-13T17:12:10.769Z,28.66
2023-05-13T17:14:42.793Z,29.05
2023-05-13T17:17:15.251Z,29.02
2023-05-13T17:19:47.887Z,29.54
2023-05-13T17:22:20.132Z,29.51
2023-05-13T17:24:52.532Z,29.71
2023-05-13T17:27:25.155Z,29.71
2023-05-13T17:29:57.766Z,29.96
2023-05-13T17:32:31.921Z,30.08
2023-05-13T17:35:05.815Z,30.20
2023-05-13T17:37:38.007Z,30.38
2023-05-13T17:40:10.884Z,30.75
2023-05-13T17:42:43.150Z,30.76
2023-05-13T17:45:15.190Z,31.08
2023-05-13T17:47:47.534Z,31.25
2023-05-13T17:50:20.308Z,31.51
2023-05-13T17:52:52.746Z,31.86
2023-05-13T17:55:24.967Z,32.20
2023-05-13T17:57:56.978Z,32.46
2023-05-13T18:00:29.299Z,32.71
2023-05-13T18:03:01.641Z,32.91
2023-05-13T18:05:34.292Z,33.33
2023-05-13T18:08:06.851Z,33.25
2023-05-13T18:10:39.092Z,33.72
2023-05-13T18:13:12.211Z,34.02
2023-05-13T18:15:44.370Z,33.98
2023-05-13T18:18:17.685Z,34.19
2023-05-13T18:20:50.418Z,34.34
2023-05-13T18:23:22.635Z,34.70
2023-05-13T18:25:56.172Z,34.64
2023-05-13T18:28:29.033Z,34.84
2023-05-13T18:31:01.652Z,35.07
2023-05-13T18:33:33.882Z,35.28
2023-05-13T18:36:06.262Z,35.17
2023-05-13T18:38:39.748Z,35.26
2023-05-13T18:41:12.088Z,35.47
2023-05-13T18:43:44.249Z,35.91
2023-05-13T18:46:16.540Z,35.77
2023-05-13T18:48:48.862Z,35.95
2023-05-13T18:51:21.140Z,35.72
2023-05-13T18:53:53.178Z,35.76
2023-05-13T18:56:25.667Z,35.88
2023-05-13T18:58:57.871Z,35.83
2023-05-13T19:01:30.269Z,35.69
2023-05-13T19:04:02.693Z,35.70
2023-05-13T19:06:38.139Z,35.90
2023-05-13T19:09:10.617Z,36.07
2023-05-13T19:11:42.955Z,36.17
2023-05-13T19:14:14.977Z,36.29
2023-05-13T19:16:47.174Z,36.58
2023-05-13T19:19:19.440Z,36.72
2023-05-13T19:21:51.559Z,36.86
2023-05-13T19:24:23.751Z,37.13
2023-05-13T19:26:56.153Z,37.39
2023-05-13T19:29:28.337Z,37.54
2023-05-13T19:32:02.514Z,37.57
2023-05-13T19:34:34.916Z,37.75
2023-05-13T19:37:07.554Z,37.88
2023-05-13T19:39:39.788Z,37.84
2023-05-13T19:42:12.363Z,38.01
2023-05-13T19:44:44.850Z,37.97
2023-05-13T19:47:17.342Z,38.00
2023-05-13T19:49:49.764Z,38.20
2023-05-13T19:52:22.667Z,38.32
2023-05-13T19:54:55.146Z,38.41
2023-05-13T19:57:29.917Z,38.48
2023-05-13T20:00:01.357Z,38.39
2023-05-13T20:02:35.213Z,38.37
2023-05-13T20:05:09.819Z,38.44
2023-05-13T20:07:42.304Z,38.38
2023-05-13T20:12:34.973Z,38.42
2023-05-13T20:15:07.705Z,38.58
2023-05-13T20:17:39.998Z,39.13
2023-05-13T20:20:12.598Z,39.07
2023-05-13T20:22:44.812Z,39.01
2023-05-13T20:25:16.945Z,39.04
2023-05-13T20:27:50.177Z,38.73
2023-05-13T20:30:22.911Z,38.44
2023-05-13T20:32:55.171Z,38.71
2023-05-13T20:35:27.803Z,38.42
2023-05-13T20:38:00.882Z,38.32
2023-05-13T20:40:33.266Z,38.10
2023-05-13T20:43:07.660Z,38.02
2023-05-13T20:45:39.788Z,38.29
2023-05-13T20:48:13.258Z,38.45
2023-05-13T20:50:45.659Z,38.55
2023-05-13T20:53:17.897Z,38.71
2023-05-13T20:55:49.804Z,38.75
2023-05-13T20:58:21.957Z,38.97
2023-05-13T21:00:54.412Z,39.07
2023-05-13T21:03:26.875Z,39.25
2023-05-13T21:05:58.959Z,39.36
2023-05-13T21:08:31.356Z,39.74
2023-05-13T21:11:04.180Z,39.83
2023-05-13T21:13:36.886Z,40.11
2023-05-13T21:16:09.383Z,40.32
2023-05-13T21:18:41.583Z,40.32
2023-05-13T21:21:13.874Z,40.83
2023-05-13T21:23:48.062Z,41.03
2023-05-13T21:26:19.793Z,41.35
2023-05-13T21:28:52.607Z,39.38
2023-05-13T21:31:27.136Z,41.51
2023-05-13T21:33:59.406Z,41.79
2023-05-13T21:36:34.288Z,42.20
2023-05-13T21:39:07.707Z,42.34
2023-05-13T21:41:40.491Z,42.34
2023-05-13T21:44:13.311Z,42.49
2023-05-13T21:46:45.312Z,42.49
2023-05-13T21:49:17.876Z,42.39
2023-05-13T21:51:51.784Z,42.39
2023-05-13T21:54:23.943Z,42.68
2023-05-13T21:56:57.297Z,42.58
2023-05-13T21:59:29.462Z,42.58
2023-05-13T22:02:01.623Z,42.78
2023-05-13T22:04:33.720Z,42.64
2023-05-13T22:07:06.604Z,42.64
2023-05-13T22:09:38.739Z,42.75
2023-05-13T22:12:10.960Z,42.99
2023-05-13T22:14:43.107Z,42.99
2023-05-13T22:17:15.662Z,42.86
2023-05-13T22:19:47.930Z,43.53
2023-05-13T22:22:20.569Z,43.53
2023-05-13T22:24:52.789Z,43.73
2023-05-13T22:27:25.091Z,43.73
2023-05-13T22:29:57.285Z,43.71
2023-05-13T22:32:29.823Z,43.95
2023-05-13T22:35:02.919Z,44.33
2023-05-13T22:37:36.128Z,44.37
2023-05-13T22:40:11.109Z,44.49
2023-05-13T22:42:43.373Z,45.05
2023-05-13T22:45:15.698Z,45.05
2023-05-13T22:47:48.848Z,45.14
2023-05-13T22:50:21.381Z,45.14
2023-05-13T22:52:53.914Z,45.47
2023-05-13T22:55:26.997Z,45.55
2023-05-13T22:58:00.007Z,45.71
2023-05-13T23:00:32.760Z,45.81
2023-05-13T23:03:04.898Z,46.02
2023-05-13T23:05:37.006Z,46.19
2023-05-13T23:08:09.220Z,46.49
2023-05-13T23:10:41.340Z,46.54
2023-05-13T23:13:13.335Z,46.82
2023-05-13T23:15:45.353Z,46.96
2023-05-13T23:18:17.669Z,47.14
2023-05-13T23:20:55.768Z,47.31
2023-05-13T23:23:28.149Z,47.44
2023-05-13T23:26:00.332Z,47.65
2023-05-13T23:28:33.098Z,47.92
2023-05-13T23:31:05.261Z,48.02
2023-05-13T23:33:37.536Z,48.20
2023-05-13T23:36:09.670Z,48.23
2023-05-13T23:38:41.751Z,48.54
2023-05-13T23:41:13.608Z,48.75
2023-05-13T23:43:45.796Z,48.93
2023-05-13T23:46:18.301Z,49.13
2023-05-13T23:48:51.088Z,49.30
2023-05-13T23:51:23.605Z,49.44
2023-05-13T23:53:55.796Z,49.76
2023-05-13T23:56:28.578Z,49.90
2023-05-13T23:59:00.628Z,50.01
